Time;durP1;ratioP1;P1;durP2;ratioP2;P2;SDS_P1;SDS_P2;PMS_P1;PMS_P2;Temp;Humidity;BMP_temperature;BMP_pressure;BME280_temperature;BME280_humidity;BME280_pressure;Samples;Min_cycle;Max_cycle;Signal;HPM_P1;HPM_P2
2021/01/10 00:01:29;;;;;;;3.85;2.55;;;;;;;;;;5052793;28;20716;-63
2021/01/10 00:03:57;;;;;;;6.55;3.05;;;;;;;;;;5052704;28;20235;-64
2021/01/10 00:06:23;;;;;;;5.90;3.40;;;;;;;;;;5052974;28;20268;-61
2021/01/10 00:08:50;;;;;;;5.57;3.30;;;;;;;;;;5053216;28;20188;-63
2021/01/10 00:11:16;;;;;;;5.30;2.72;;;;;;;;;;5052157;28;20254;-63
2021/01/10 00:13:42;;;;;;;3.80;2.25;;;;;;;;;;5052693;28;20843;-63
2021/01/10 00:16:09;;;;;;;4.38;2.08;;;;;;;;;;5052119;28;20189;-62
2021/01/10 00:18:35;;;;;;;3.78;2.00;;;;;;;;;;5052966;28;20254;-65
2021/01/10 00:21:01;;;;;;;2.90;2.00;;;;;;;;;;5052146;28;20208;-65
2021/01/10 00:23:27;;;;;;;2.55;1.60;;;;;;;;;;5052854;28;20199;-66
2021/01/10 00:25:54;;;;;;;2.42;1.50;;;;;;;;;;5051928;28;20207;-61
2021/01/10 00:28:20;;;;;;;3.08;1.90;;;;;;;;;;5052430;28;20223;-64
2021/01/10 00:30:46;;;;;;;2.83;1.73;;;;;;;;;;5052420;28;20212;-64
2021/01/10 00:33:12;;;;;;;2.90;1.90;;;;;;;;;;5052209;28;20196;-63
2021/01/10 00:35:39;;;;;;;4.30;2.40;;;;;;;;;;5051320;28;20220;-63
2021/01/10 00:38:05;;;;;;;2.63;2.13;;;;;;;;;;5052968;28;20557;-67
2021/01/10 00:40:31;;;;;;;3.90;2.70;;;;;;;;;;5051904;28;20197;-63
2021/01/10 00:42:58;;;;;;;5.15;3.30;;;;;;;;;;5052872;28;20196;-64
2021/01/10 00:45:25;;;;;;;4.78;3.05;;;;;;;;;;5050740;28;20215;-65
2021/01/10 00:47:54;;;;;;;3.67;2.80;;;;;;;;;;5052373;28;20216;-62
2021/01/10 00:50:36;;;;;;;3.95;2.28;;;;;;;;;;5050229;28;20755;-64
2021/01/10 00:53:06;;;;;;;7.43;4.70;;;;;;;;;;5050873;28;20591;-64
2021/01/10 00:55:36;;;;;;;5.57;3.60;;;;;;;;;;5051881;28;20200;-65
2021/01/10 00:58:04;;;;;;;5.32;3.15;;;;;;;;;;5051540;28;20693;-64
2021/01/10 01:00:31;;;;;;;9.07;4.97;;;;;;;;;;5051955;28;20197;-63
2021/01/10 01:02:58;;;;;;;8.50;5.00;;;;;;;;;;5050882;28;20320;-64
2021/01/10 01:05:24;;;;;;;9.48;5.20;;;;;;;;;;5049920;28;20206;-63
2021/01/10 01:07:54;;;;;;;12.65;7.82;;;;;;;;;;5050019;28;20610;-64
2021/01/10 01:10:27;;;;;;;14.23;7.72;;;;;;;;;;5050137;28;20208;-66
2021/01/10 01:12:54;;;;;;;11.20;6.47;;;;;;;;;;5051591;28;20262;-64
2021/01/10 01:15:20;;;;;;;11.55;5.32;;;;;;;;;;5051477;28;20246;-62
2021/01/10 01:17:46;;;;;;;13.70;6.80;;;;;;;;;;5051630;28;20631;-63
2021/01/10 01:20:13;;;;;;;12.73;7.57;;;;;;;;;;5051065;28;20218;-64
2021/01/10 01:22:39;;;;;;;9.10;5.15;;;;;;;;;;5051946;28;20208;-64
2021/01/10 01:25:05;;;;;;;7.60;3.88;;;;;;;;;;5049756;28;20663;-64
2021/01/10 01:27:32;;;;;;;4.85;3.15;;;;;;;;;;5051620;28;20782;-64
2021/01/10 01:29:59;;;;;;;5.32;3.35;;;;;;;;;;5051483;28;20247;-67
2021/01/10 01:32:25;;;;;;;6.72;3.83;;;;;;;;;;5051172;28;20197;-61
2021/01/10 01:34:51;;;;;;;4.72;3.10;;;;;;;;;;5051078;28;20239;-67
2021/01/10 01:37:17;;;;;;;6.32;4.13;;;;;;;;;;5051405;28;20204;-65
2021/01/10 01:39:43;;;;;;;6.32;3.92;;;;;;;;;;5051179;28;20192;-65
2021/01/10 01:42:13;;;;;;;5.40;3.50;;;;;;;;;;5051150;28;20670;-66
2021/01/10 01:44:39;;;;;;;3.70;2.50;;;;;;;;;;5050370;28;20307;-63
2021/01/10 01:47:06;;;;;;;3.20;2.45;;;;;;;;;;5051086;28;20220;-63
2021/01/10 01:49:32;;;;;;;3.53;2.60;;;;;;;;;;5050594;28;20227;-65
2021/01/10 01:51:58;;;;;;;4.28;3.40;;;;;;;;;;5050919;28;20720;-63
2021/01/10 01:54:25;;;;;;;6.28;3.97;;;;;;;;;;5050243;28;20208;-66
2021/01/10 01:56:51;;;;;;;7.07;4.50;;;;;;;;;;5051020;28;20185;-68
2021/01/10 01:59:17;;;;;;;10.48;5.63;;;;;;;;;;5050121;28;20204;-67
2021/01/10 02:01:43;;;;;;;9.65;5.65;;;;;;;;;;5051068;28;20279;-65
2021/01/10 02:04:28;;;;;;;12.30;6.88;;;;;;;;;;5050190;28;20211;-66
2021/01/10 02:07:01;;;;;;;7.60;4.60;;;;;;;;;;5050659;28;20788;-66
2021/01/10 02:09:29;;;;;;;6.07;4.07;;;;;;;;;;5050161;28;20196;-67
2021/01/10 02:11:58;;;;;;;5.60;3.83;;;;;;;;;;5050669;28;20211;-64
2021/01/10 02:14:26;;;;;;;5.40;3.72;;;;;;;;;;5049747;28;20181;-68
2021/01/10 02:16:53;;;;;;;6.72;3.17;;;;;;;;;;5049209;28;20207;-65
2021/01/10 02:19:32;;;;;;;5.53;3.72;;;;;;;;;;5049844;28;20406;-66
2021/01/10 02:21:59;;;;;;;6.18;3.97;;;;;;;;;;5050147;28;20279;-64
2021/01/10 02:24:25;;;;;;;5.35;3.05;;;;;;;;;;5050012;28;20195;-63
2021/01/10 02:26:52;;;;;;;4.25;3.13;;;;;;;;;;5050357;28;20274;-66
2021/01/10 02:29:18;;;;;;;4.05;2.58;;;;;;;;;;5049532;28;20211;-65
2021/01/10 02:31:47;;;;;;;4.85;2.70;;;;;;;;;;5050092;28;20193;-66
2021/01/10 02:34:15;;;;;;;3.42;2.38;;;;;;;;;;5049703;28;20315;-67
2021/01/10 02:36:51;;;;;;;4.03;2.30;;;;;;;;;;5049795;28;20313;-64
2021/01/10 02:39:36;;;;;;;3.78;2.47;;;;;;;;;;5049986;28;20310;-64
2021/01/10 02:42:10;;;;;;;4.68;2.83;;;;;;;;;;5050123;28;20280;-63
2021/01/10 02:44:49;;;;;;;4.18;2.67;;;;;;;;;;5049507;28;20630;-62
2021/01/10 02:47:15;;;;;;;4.20;2.28;;;;;;;;;;5049954;28;20274;-67
2021/01/10 02:49:41;;;;;;;4.30;2.40;;;;;;;;;;5049731;28;20200;-67
2021/01/10 02:52:07;;;;;;;3.53;2.20;;;;;;;;;;5050068;28;20211;-65
2021/01/10 02:54:34;;;;;;;3.65;2.35;;;;;;;;;;5049971;28;20571;-64
2021/01/10 02:57:01;;;;;;;3.22;2.08;;;;;;;;;;5050102;28;20219;-66
2021/01/10 02:59:30;;;;;;;2.92;2.00;;;;;;;;;;5049142;28;20200;-69
2021/01/10 03:01:58;;;;;;;2.65;2.15;;;;;;;;;;5050309;28;20192;-65
2021/01/10 03:04:25;;;;;;;3.88;2.10;;;;;;;;;;5049463;28;20205;-66
2021/01/10 03:06:55;;;;;;;3.47;2.33;;;;;;;;;;5049766;28;20213;-64
2021/01/10 03:09:21;;;;;;;2.25;2.05;;;;;;;;;;5049292;28;20537;-65
2021/01/10 03:11:48;;;;;;;3.58;2.60;;;;;;;;;;5050161;28;20253;-66
2021/01/10 03:14:15;;;;;;;2.97;2.45;;;;;;;;;;5048736;28;20208;-66
2021/01/10 03:16:42;;;;;;;2.90;2.50;;;;;;;;;;5050058;28;20213;-65
2021/01/10 03:19:08;;;;;;;2.88;2.33;;;;;;;;;;5048789;28;20201;-66
2021/01/10 03:21:34;;;;;;;3.95;2.55;;;;;;;;;;5049069;28;21003;-67
2021/01/10 03:24:01;;;;;;;3.30;2.35;;;;;;;;;;5049041;28;20663;-65
2021/01/10 03:26:27;;;;;;;4.10;2.70;;;;;;;;;;5049611;28;20208;-64
2021/01/10 03:28:53;;;;;;;3.55;2.60;;;;;;;;;;5049428;28;20232;-68
2021/01/10 03:31:19;;;;;;;4.10;3.00;;;;;;;;;;5051419;28;20196;-65
2021/01/10 03:33:46;;;;;;;4.25;2.60;;;;;;;;;;5053331;28;20232;-64
2021/01/10 03:36:12;;;;;;;2.92;2.35;;;;;;;;;;5053139;28;20235;-65
2021/01/10 03:38:39;;;;;;;5.40;3.28;;;;;;;;;;5053282;28;20195;-67
2021/01/10 03:41:05;;;;;;;3.90;2.45;;;;;;;;;;5053370;28;20586;-66
2021/01/10 03:43:32;;;;;;;3.40;2.40;;;;;;;;;;5053341;28;20205;-62
2021/01/10 03:45:58;;;;;;;3.15;2.50;;;;;;;;;;5052374;28;20231;-62
2021/01/10 03:48:25;;;;;;;6.80;2.65;;;;;;;;;;5053547;28;20243;-63
2021/01/10 03:50:51;;;;;;;3.47;2.80;;;;;;;;;;5052814;28;20205;-64
2021/01/10 03:53:17;;;;;;;3.28;2.50;;;;;;;;;;5053074;28;20192;-64
2021/01/10 03:55:43;;;;;;;3.50;2.53;;;;;;;;;;5052229;28;20548;-67
2021/01/10 03:58:09;;;;;;;4.30;2.40;;;;;;;;;;5052940;28;20201;-62
2021/01/10 04:00:36;;;;;;;3.80;2.70;;;;;;;;;;5052478;28;20200;-65
2021/01/10 04:03:02;;;;;;;3.42;2.33;;;;;;;;;;5052979;28;20704;-67
2021/01/10 04:05:28;;;;;;;3.28;2.45;;;;;;;;;;5052726;28;20209;-65
2021/01/10 04:07:54;;;;;;;3.92;2.30;;;;;;;;;;5053095;28;20299;-66
2021/01/10 04:10:21;;;;;;;3.47;2.45;;;;;;;;;;5052557;28;20618;-65
2021/01/10 04:12:47;;;;;;;3.03;2.20;;;;;;;;;;5052589;28;20201;-63
2021/01/10 04:15:13;;;;;;;3.55;2.25;;;;;;;;;;5052085;28;20200;-66
2021/01/10 04:17:40;;;;;;;3.92;1.90;;;;;;;;;;5052768;28;20196;-63
2021/01/10 04:20:06;;;;;;;2.50;1.70;;;;;;;;;;5052327;28;20670;-63
2021/01/10 04:22:33;;;;;;;2.30;1.70;;;;;;;;;;5052589;28;20201;-63
2021/01/10 04:24:59;;;;;;;3.72;2.47;;;;;;;;;;5052155;28;20230;-66
2021/01/10 04:27:25;;;;;;;3.38;2.60;;;;;;;;;;5052982;28;20209;-66
2021/01/10 04:29:54;;;;;;;2.75;1.90;;;;;;;;;;5052091;28;20242;-63
2021/01/10 04:32:21;;;;;;;2.92;2.10;;;;;;;;;;5052638;28;20200;-66
2021/01/10 04:34:48;;;;;;;3.03;1.92;;;;;;;;;;5051951;28;20610;-64
2021/01/10 04:37:15;;;;;;;4.32;2.03;;;;;;;;;;5052201;28;20258;-69
2021/01/10 04:39:41;;;;;;;3.85;1.80;;;;;;;;;;5051728;28;20295;-64
2021/01/10 04:42:08;;;;;;;3.80;1.60;;;;;;;;;;5051750;28;20192;-67
2021/01/10 04:44:35;;;;;;;3.35;2.05;;;;;;;;;;5051948;28;20254;-65
2021/01/10 04:47:01;;;;;;;3.30;2.35;;;;;;;;;;5052125;28;20208;-66
2021/01/10 04:49:28;;;;;;;3.28;2.00;;;;;;;;;;5052090;28;20616;-63
2021/01/10 04:51:55;;;;;;;3.15;2.15;;;;;;;;;;5052214;28;20224;-62
2021/01/10 04:54:23;;;;;;;2.50;1.77;;;;;;;;;;5051463;28;20196;-64
2021/01/10 04:56:49;;;;;;;3.55;1.75;;;;;;;;;;5052416;28;20686;-67
2021/01/10 04:59:17;;;;;;;3.97;2.08;;;;;;;;;;5051915;28;20639;-63
2021/01/10 05:01:50;;;;;;;2.90;1.70;;;;;;;;;;5051732;28;20231;-65
2021/01/10 05:04:17;;;;;;;2.25;1.70;;;;;;;;;;5051389;28;20204;-64
2021/01/10 05:06:44;;;;;;;2.08;1.58;;;;;;;;;;5052073;28;20184;-64
2021/01/10 05:09:12;;;;;;;2.45;1.70;;;;;;;;;;5051775;28;20228;-63
2021/01/10 05:11:38;;;;;;;2.83;1.67;;;;;;;;;;5052008;28;20197;-65
2021/01/10 05:14:05;;;;;;;2.35;1.52;;;;;;;;;;5051330;28;20188;-65
2021/01/10 05:16:32;;;;;;;2.72;1.80;;;;;;;;;;5051607;28;20195;-65
2021/01/10 05:19:00;;;;;;;2.20;1.70;;;;;;;;;;5051351;28;20203;-64
2021/01/10 05:21:26;;;;;;;3.25;2.28;;;;;;;;;;5051356;28;21023;-67
2021/01/10 05:23:55;;;;;;;2.47;1.80;;;;;;;;;;5051950;28;20196;-66
2021/01/10 05:26:21;;;;;;;1.95;1.58;;;;;;;;;;5051051;28;20203;-65
2021/01/10 05:28:49;;;;;;;2.60;1.60;;;;;;;;;;5051297;28;20232;-67
2021/01/10 05:31:31;;;;;;;2.40;1.83;;;;;;;;;;5050552;28;20192;-64
2021/01/10 05:33:57;;;;;;;3.53;2.20;;;;;;;;;;5051289;28;20208;-67
2021/01/10 05:36:34;;;;;;;3.40;2.20;;;;;;;;;;5050983;28;20232;-64
2021/01/10 05:39:13;;;;;;;3.00;2.00;;;;;;;;;;5050822;28;20200;-61
2021/01/10 05:41:52;;;;;;;2.63;2.20;;;;;;;;;;5051116;28;20207;-66
2021/01/10 05:44:18;;;;;;;3.28;2.30;;;;;;;;;;5051681;28;20295;-65
2021/01/10 05:46:45;;;;;;;2.92;2.17;;;;;;;;;;5052892;28;20185;-65
2021/01/10 05:49:21;;;;;;;3.10;1.92;;;;;;;;;;5051825;28;20708;-66
2021/01/10 05:51:48;;;;;;;1.80;1.58;;;;;;;;;;5052057;28;20192;-64
2021/01/10 05:54:35;;;;;;;3.03;2.00;;;;;;;;;;5050748;28;20187;-65
2021/01/10 05:57:02;;;;;;;3.25;2.33;;;;;;;;;;5051447;28;20200;-64
2021/01/10 05:59:29;;;;;;;4.95;3.17;;;;;;;;;;5051087;28;20197;-65
2021/01/10 06:01:56;;;;;;;5.53;3.75;;;;;;;;;;5050805;28;20207;-67
2021/01/10 06:04:23;;;;;;;7.57;4.63;;;;;;;;;;5050301;28;20696;-69
2021/01/10 06:06:49;;;;;;;6.45;4.28;;;;;;;;;;5050712;28;20219;-64
2021/01/10 06:09:16;;;;;;;14.65;7.38;;;;;;;;;;5050316;28;20201;-68
2021/01/10 06:11:42;;;;;;;10.25;6.32;;;;;;;;;;5050513;28;20212;-67
2021/01/10 06:14:09;;;;;;;9.95;6.05;;;;;;;;;;5050152;28;20204;-66
2021/01/10 06:16:37;;;;;;;9.30;6.28;;;;;;;;;;5050236;28;20177;-65
2021/01/10 06:19:05;;;;;;;9.10;6.20;;;;;;;;;;5049918;28;20200;-65
2021/01/10 06:21:32;;;;;;;9.98;6.25;;;;;;;;;;5049916;28;20593;-63
2021/01/10 06:24:00;;;;;;;10.27;6.05;;;;;;;;;;5050579;28;20274;-61
2021/01/10 06:26:27;;;;;;;7.15;4.90;;;;;;;;;;5050508;28;20192;-67
2021/01/10 06:28:54;;;;;;;7.40;4.93;;;;;;;;;;5050208;28;20323;-67
2021/01/10 06:31:32;;;;;;;8.95;5.47;;;;;;;;;;5049985;28;20211;-65
2021/01/10 06:34:08;;;;;;;7.70;5.35;;;;;;;;;;5050040;28;20235;-67
2021/01/10 06:36:36;;;;;;;9.48;5.43;;;;;;;;;;5050036;28;20228;-67
2021/01/10 06:39:12;;;;;;;7.65;5.07;;;;;;;;;;5049144;28;20235;-66
2021/01/10 06:41:49;;;;;;;7.05;4.45;;;;;;;;;;5050183;28;20200;-65
2021/01/10 06:44:17;;;;;;;8.38;5.40;;;;;;;;;;5049774;28;20204;-62
2021/01/10 06:46:51;;;;;;;5.55;3.97;;;;;;;;;;5049712;28;20219;-63
2021/01/10 06:49:17;;;;;;;4.50;3.00;;;;;;;;;;5049288;28;20270;-64
2021/01/10 06:51:45;;;;;;;3.72;2.65;;;;;;;;;;5049333;28;20200;-66
2021/01/10 06:54:11;;;;;;;3.80;2.53;;;;;;;;;;5049340;28;20259;-62
2021/01/10 06:56:38;;;;;;;4.05;2.88;;;;;;;;;;5049924;28;20200;-67
2021/01/10 06:59:08;;;;;;;4.07;2.90;;;;;;;;;;5049399;28;20189;-66
2021/01/10 07:01:46;;;;;;;4.35;2.70;;;;;;;;;;5048969;28;20295;-65
2021/01/10 07:04:13;;;;;;;6.22;2.60;;;;;;;;;;5049389;28;20642;-64
2021/01/10 07:06:45;;;;;;;5.32;3.80;;;;;;;;;;5049966;28;20287;-64
2021/01/10 07:09:12;;;;;;;6.15;3.78;;;;;;;;;;5048877;28;20228;-62
2021/01/10 07:11:38;;;;;;;6.25;3.92;;;;;;;;;;5049576;28;20207;-64
2021/01/10 07:14:04;;;;;;;6.55;4.53;;;;;;;;;;5049394;28;20284;-64
2021/01/10 07:16:31;;;;;;;9.30;4.63;;;;;;;;;;5049603;28;20203;-66
2021/01/10 07:18:58;;;;;;;8.32;4.32;;;;;;;;;;5049116;28;20196;-68
2021/01/10 07:21:31;;;;;;;6.45;3.90;;;;;;;;;;5049336;28;20208;-65
2021/01/10 07:24:14;;;;;;;5.55;3.78;;;;;;;;;;5049476;28;20686;-66
2021/01/10 07:26:47;;;;;;;6.57;3.90;;;;;;;;;;5049594;28;20226;-63
2021/01/10 07:29:25;;;;;;;6.68;3.70;;;;;;;;;;5049131;28;20228;-68
2021/01/10 07:32:04;;;;;;;5.80;3.00;;;;;;;;;;5049352;28;20203;-65
2021/01/10 07:34:31;;;;;;;4.30;2.75;;;;;;;;;;5048839;28;20762;-67
2021/01/10 07:36:58;;;;;;;4.50;2.72;;;;;;;;;;5049421;28;20208;-66
2021/01/10 07:39:26;;;;;;;3.92;2.30;;;;;;;;;;5048787;28;20698;-66
2021/01/10 07:41:53;;;;;;;3.83;2.50;;;;;;;;;;5049175;28;20209;-65
2021/01/10 07:44:21;;;;;;;3.78;2.45;;;;;;;;;;5048991;28;20226;-65
2021/01/10 07:46:54;;;;;;;3.70;2.25;;;;;;;;;;5049215;28;20196;-64
2021/01/10 07:49:22;;;;;;;5.32;2.88;;;;;;;;;;5048317;28;20286;-67
2021/01/10 07:51:49;;;;;;;5.57;3.20;;;;;;;;;;5043056;28;20292;-64
2021/01/10 07:54:16;;;;;;;6.20;3.80;;;;;;;;;;5048534;28;20197;-65
2021/01/10 07:56:42;;;;;;;8.75;3.33;;;;;;;;;;5049071;28;20200;-66
2021/01/10 07:59:16;;;;;;;4.70;2.85;;;;;;;;;;5050004;28;20635;-71
2021/01/10 08:01:46;;;;;;;5.97;3.20;;;;;;;;;;5049599;28;20697;-67
2021/01/10 08:04:25;;;;;;;4.63;3.00;;;;;;;;;;5048611;28;20208;-67
2021/01/10 08:06:56;;;;;;;4.85;3.00;;;;;;;;;;5049239;28;20278;-63
2021/01/10 08:09:22;;;;;;;5.55;3.25;;;;;;;;;;5048473;28;20243;-65
2021/01/10 08:11:54;;;;;;;5.68;3.70;;;;;;;;;;5049307;28;20232;-64
2021/01/10 08:14:20;;;;;;;7.28;4.20;;;;;;;;;;5048190;28;20192;-64
2021/01/10 08:16:47;;;;;;;9.73;5.43;;;;;;;;;;5049963;28;20187;-63
2021/01/10 08:19:13;;;;;;;8.68;5.15;;;;;;;;;;5052315;28;20207;-64
2021/01/10 08:21:39;;;;;;;7.55;4.60;;;;;;;;;;5052298;28;20193;-67
2021/01/10 08:24:06;;;;;;;7.90;4.80;;;;;;;;;;5049488;28;20287;-68
2021/01/10 08:26:39;;;;;;;7.25;4.78;;;;;;;;;;5052569;28;20207;-67
2021/01/10 08:29:09;;;;;;;8.20;4.97;;;;;;;;;;5052186;28;20315;-63
2021/01/10 08:31:36;;;;;;;7.88;4.15;;;;;;;;;;5052498;28;20207;-64
2021/01/10 08:34:06;;;;;;;6.97;4.10;;;;;;;;;;5052041;28;20243;-66
2021/01/10 08:36:34;;;;;;;7.47;4.70;;;;;;;;;;5051948;28;20331;-65
2021/01/10 08:39:01;;;;;;;10.02;5.40;;;;;;;;;;5051846;28;20196;-65
2021/01/10 08:41:31;;;;;;;8.15;4.80;;;;;;;;;;5052636;28;20216;-66
2021/01/10 08:43:59;;;;;;;8.52;5.47;;;;;;;;;;5047796;28;20304;-65
2021/01/10 08:46:26;;;;;;;6.28;4.75;;;;;;;;;;5044381;28;20287;-65
2021/01/10 08:48:52;;;;;;;8.20;4.70;;;;;;;;;;5051217;28;20227;-66
2021/01/10 08:51:28;;;;;;;7.85;4.38;;;;;;;;;;5052188;28;20191;-65
2021/01/10 08:53:54;;;;;;;5.38;3.65;;;;;;;;;;5050555;28;20200;-69
2021/01/10 08:56:22;;;;;;;6.75;4.38;;;;;;;;;;5052071;28;20196;-66
2021/01/10 08:58:57;;;;;;;7.82;4.63;;;;;;;;;;5050322;28;20184;-64
2021/01/10 09:01:24;;;;;;;8.77;4.35;;;;;;;;;;5047851;28;20290;-66
2021/01/10 09:04:09;;;;;;;7.18;4.22;;;;;;;;;;5049413;28;20217;-65
2021/01/10 09:06:52;;;;;;;15.63;9.82;;;;;;;;;;5047698;28;20666;-66
2021/01/10 09:09:28;;;;;;;19.30;10.98;;;;;;;;;;5047571;28;20220;-64
2021/01/10 09:12:15;;;;;;;14.63;9.75;;;;;;;;;;5047243;28;20185;-66
2021/01/10 09:14:44;;;;;;;10.18;7.10;;;;;;;;;;5040399;28;20674;-65
2021/01/10 09:17:12;;;;;;;9.88;7.35;;;;;;;;;;5049434;28;20184;-65
2021/01/10 09:19:39;;;;;;;12.15;7.82;;;;;;;;;;5049011;28;20193;-67
2021/01/10 09:22:05;;;;;;;9.85;6.38;;;;;;;;;;5039518;28;20662;-69
2021/01/10 09:24:32;;;;;;;210.50;152.68;;;;;;;;;;5040000;28;20669;-65
2021/01/10 09:27:16;;;;;;;36.03;24.15;;;;;;;;;;5039679;28;20272;-66
2021/01/10 09:29:43;;;;;;;11.90;7.40;;;;;;;;;;5047700;28;20203;-62
2021/01/10 09:32:19;;;;;;;12.13;6.90;;;;;;;;;;5050275;28;20196;-68
2021/01/10 09:34:45;;;;;;;10.38;7.20;;;;;;;;;;5048994;28;20324;-64
2021/01/10 09:37:13;;;;;;;9.23;5.88;;;;;;;;;;5049798;28;20181;-63
2021/01/10 09:39:41;;;;;;;11.73;6.82;;;;;;;;;;5049248;28;20224;-67
2021/01/10 09:42:07;;;;;;;33.30;20.63;;;;;;;;;;5050020;28;20189;-68
2021/01/10 09:44:34;;;;;;;97.60;63.10;;;;;;;;;;5049284;28;20195;-66
2021/01/10 09:47:03;;;;;;;21.20;13.43;;;;;;;;;;5049439;28;20193;-66
2021/01/10 09:49:30;;;;;;;7.65;5.25;;;;;;;;;;5048898;28;20951;-71
2021/01/10 09:51:58;;;;;;;9.32;5.95;;;;;;;;;;5046883;28;20587;-67
2021/01/10 09:54:25;;;;;;;10.38;6.18;;;;;;;;;;5049204;28;20185;-66
2021/01/10 09:56:56;;;;;;;10.30;6.22;;;;;;;;;;5049304;28;20657;-65
2021/01/10 09:59:41;;;;;;;10.38;6.63;;;;;;;;;;5039056;28;20196;-65
2021/01/10 10:02:24;;;;;;;11.38;6.97;;;;;;;;;;5035748;28;20254;-65
2021/01/10 10:04:53;;;;;;;9.82;6.65;;;;;;;;;;5048212;28;20665;-67
2021/01/10 10:07:29;;;;;;;9.27;6.10;;;;;;;;;;5049342;28;20574;-67
2021/01/10 10:09:55;;;;;;;10.02;5.95;;;;;;;;;;5048014;28;20204;-72
2021/01/10 10:12:22;;;;;;;13.90;6.15;;;;;;;;;;5038002;28;20188;-69
2021/01/10 10:15:09;;;;;;;11.65;6.60;;;;;;;;;;5045298;28;20216;-67
2021/01/10 10:17:36;;;;;;;11.05;6.25;;;;;;;;;;5047016;28;20198;-64
2021/01/10 10:20:08;;;;;;;10.43;6.07;;;;;;;;;;5047770;28;20679;-60
2021/01/10 10:22:35;;;;;;;128.35;87.13;;;;;;;;;;5049066;28;20266;-64
2021/01/10 10:25:06;;;;;;;51.35;34.55;;;;;;;;;;5049175;28;20271;-66
2021/01/10 10:27:32;;;;;;;11.45;6.93;;;;;;;;;;5047001;28;20201;-65
2021/01/10 10:29:59;;;;;;;9.65;5.22;;;;;;;;;;5048014;28;20192;-65
2021/01/10 10:32:26;;;;;;;9.77;4.22;;;;;;;;;;5048441;28;20266;-63
2021/01/10 10:34:53;;;;;;;7.03;4.22;;;;;;;;;;5048399;28;20232;-66
2021/01/10 10:37:20;;;;;;;7.63;4.50;;;;;;;;;;5048758;28;20185;-67
2021/01/10 10:39:46;;;;;;;6.38;4.43;;;;;;;;;;5047263;28;20188;-64
2021/01/10 10:42:14;;;;;;;9.00;5.10;;;;;;;;;;5049631;28;20215;-67
2021/01/10 10:44:40;;;;;;;9.73;5.78;;;;;;;;;;5051262;28;20180;-65
2021/01/10 10:47:11;;;;;;;10.05;5.88;;;;;;;;;;5056727;28;20201;-64
2021/01/10 10:49:38;;;;;;;12.70;6.47;;;;;;;;;;5048463;28;20751;-65
2021/01/10 10:52:11;;;;;;;8.30;5.30;;;;;;;;;;5048605;28;20192;-64
2021/01/10 10:54:37;;;;;;;12.13;5.95;;;;;;;;;;5047553;28;20196;-64
2021/01/10 10:57:05;;;;;;;8.15;4.90;;;;;;;;;;5038208;28;20534;-68
2021/01/10 10:59:31;;;;;;;8.52;5.53;;;;;;;;;;5038132;28;20196;-66
2021/01/10 11:01:57;;;;;;;12.60;5.47;;;;;;;;;;5037779;28;20200;-72
2021/01/10 11:04:24;;;;;;;340.15;237.32;;;;;;;;;;5047460;28;20212;-66
2021/01/10 11:06:50;;;;;;;90.28;61.65;;;;;;;;;;5048767;28;20829;-66
2021/01/10 11:09:16;;;;;;;10.80;7.25;;;;;;;;;;5047376;28;20216;-64
2021/01/10 11:11:45;;;;;;;12.70;7.55;;;;;;;;;;5047721;28;20196;-67
2021/01/10 11:14:12;;;;;;;11.68;8.40;;;;;;;;;;5047330;28;20196;-63
2021/01/10 11:16:39;;;;;;;13.00;8.25;;;;;;;;;;5047949;28;20262;-65
2021/01/10 11:19:06;;;;;;;10.98;8.43;;;;;;;;;;5046601;28;20207;-66
2021/01/10 11:21:43;;;;;;;11.75;7.97;;;;;;;;;;5047784;28;20207;-64
2021/01/10 11:24:10;;;;;;;10.80;7.70;;;;;;;;;;5044915;28;20257;-66
2021/01/10 11:26:40;;;;;;;11.95;6.63;;;;;;;;;;5047600;28;20555;-65
2021/01/10 11:29:07;;;;;;;9.43;5.70;;;;;;;;;;5047423;28;20215;-65
2021/01/10 11:31:34;;;;;;;77.30;50.67;;;;;;;;;;5047990;28;20199;-65
2021/01/10 11:34:04;;;;;;;301.50;232.93;;;;;;;;;;5047110;28;20192;-65
2021/01/10 11:36:31;;;;;;;11.48;6.68;;;;;;;;;;5068913;28;20248;-68
2021/01/10 11:38:57;;;;;;;5.00;3.55;;;;;;;;;;5047631;28;20192;-64
2021/01/10 11:41:24;;;;;;;6.13;3.35;;;;;;;;;;5047021;28;20200;-64
2021/01/10 11:43:51;;;;;;;4.65;3.13;;;;;;;;;;5048555;28;20189;-65
2021/01/10 11:46:18;;;;;;;6.72;3.47;;;;;;;;;;5047355;28;20308;-61
2021/01/10 11:48:45;;;;;;;4.47;2.42;;;;;;;;;;5048535;28;20286;-65
2021/01/10 11:51:12;;;;;;;7.05;2.83;;;;;;;;;;5048347;28;20219;-65
2021/01/10 11:53:39;;;;;;;5.25;2.65;;;;;;;;;;5053163;28;20199;-71
2021/01/10 11:56:05;;;;;;;5.20;3.00;;;;;;;;;;5053025;28;20196;-66
2021/01/10 11:58:32;;;;;;;6.70;3.25;;;;;;;;;;5052786;28;20196;-69
2021/01/10 12:00:58;;;;;;;6.07;3.20;;;;;;;;;;5051069;28;20559;-66
2021/01/10 12:03:25;;;;;;;5.25;3.10;;;;;;;;;;5052530;28;20183;-64
2021/01/10 12:05:52;;;;;;;5.85;3.08;;;;;;;;;;5052853;28;20849;-62
2021/01/10 12:08:20;;;;;;;4.25;2.67;;;;;;;;;;5055050;28;20242;-66
2021/01/10 12:10:46;;;;;;;4.88;2.80;;;;;;;;;;5052469;28;20200;-63
2021/01/10 12:13:14;;;;;;;51.83;34.10;;;;;;;;;;5052302;28;20196;-68
2021/01/10 12:15:40;;;;;;;35.58;23.08;;;;;;;;;;5052016;28;20569;-62
2021/01/10 12:18:07;;;;;;;7.55;4.78;;;;;;;;;;5052625;28;20285;-64
2021/01/10 12:20:34;;;;;;;7.43;4.50;;;;;;;;;;5052084;28;20200;-63
2021/01/10 12:23:00;;;;;;;7.30;4.35;;;;;;;;;;5052488;28;20210;-71
2021/01/10 12:25:27;;;;;;;8.15;4.15;;;;;;;;;;5051756;28;20181;-68
2021/01/10 12:27:54;;;;;;;9.43;4.60;;;;;;;;;;5052357;28;20221;-68
2021/01/10 12:30:20;;;;;;;11.15;4.88;;;;;;;;;;5051664;28;20673;-65
2021/01/10 12:32:47;;;;;;;9.85;5.00;;;;;;;;;;5051882;28;20254;-65
2021/01/10 12:35:18;;;;;;;8.18;4.55;;;;;;;;;;5051410;28;20231;-64
2021/01/10 12:37:45;;;;;;;5.78;3.40;;;;;;;;;;5052079;28;20231;-64
2021/01/10 12:40:12;;;;;;;5.22;3.13;;;;;;;;;;5052062;28;20189;-66
2021/01/10 12:42:39;;;;;;;7.95;3.72;;;;;;;;;;5051991;28;20196;-64
2021/01/10 12:45:07;;;;;;;8.45;4.20;;;;;;;;;;5051922;28;20185;-67
2021/01/10 12:47:35;;;;;;;8.77;3.97;;;;;;;;;;5051587;28;20219;-65
2021/01/10 12:50:02;;;;;;;6.00;3.83;;;;;;;;;;5051335;28;20228;-66
2021/01/10 12:52:28;;;;;;;6.30;4.35;;;;;;;;;;5051711;28;20581;-65
2021/01/10 12:54:55;;;;;;;5.13;3.70;;;;;;;;;;5051118;28;20216;-62
2021/01/10 12:57:23;;;;;;;5.18;3.50;;;;;;;;;;5051702;28;20196;-67
2021/01/10 12:59:50;;;;;;;192.57;126.97;;;;;;;;;;5051188;28;20289;-66
2021/01/10 13:02:16;;;;;;;84.53;59.25;;;;;;;;;;5051370;28;20204;-66
2021/01/10 13:04:42;;;;;;;7.75;3.72;;;;;;;;;;5051031;28;20193;-63
2021/01/10 13:07:09;;;;;;;6.70;4.28;;;;;;;;;;5051958;28;20205;-63
2021/01/10 13:09:38;;;;;;;6.82;3.72;;;;;;;;;;5050609;28;20225;-66
2021/01/10 13:12:08;;;;;;;6.50;4.20;;;;;;;;;;5051500;28;20193;-65
2021/01/10 13:14:35;;;;;;;9.23;5.78;;;;;;;;;;5050949;28;20215;-65
2021/01/10 13:17:04;;;;;;;12.35;8.90;;;;;;;;;;5051475;28;20636;-65
2021/01/10 13:19:30;;;;;;;14.55;8.65;;;;;;;;;;5050648;28;20651;-63
2021/01/10 13:21:57;;;;;;;18.40;9.52;;;;;;;;;;5050922;28;20247;-70
2021/01/10 13:24:23;;;;;;;16.05;8.90;;;;;;;;;;5051061;28;20564;-67
2021/01/10 13:26:54;;;;;;;15.15;9.65;;;;;;;;;;5051656;28;20184;-70
2021/01/10 13:29:20;;;;;;;16.60;9.82;;;;;;;;;;5050975;28;20231;-64
2021/01/10 13:31:47;;;;;;;19.52;10.32;;;;;;;;;;5050937;28;20227;-65
2021/01/10 13:34:13;;;;;;;17.67;9.85;;;;;;;;;;5050804;28;20670;-67
2021/01/10 13:36:40;;;;;;;15.60;8.55;;;;;;;;;;5050632;28;20232;-65
2021/01/10 13:39:06;;;;;;;14.93;8.85;;;;;;;;;;5051459;28;20205;-70
2021/01/10 13:41:33;;;;;;;13.95;8.50;;;;;;;;;;5051136;28;20210;-64
2021/01/10 13:43:59;;;;;;;10.80;6.80;;;;;;;;;;5050725;28;20184;-69
2021/01/10 13:46:26;;;;;;;8.93;5.80;;;;;;;;;;5050192;28;20189;-64
2021/01/10 13:48:52;;;;;;;8.25;5.55;;;;;;;;;;5051058;28;20224;-65
2021/01/10 13:51:24;;;;;;;9.75;5.47;;;;;;;;;;5050759;28;20204;-66
2021/01/10 13:53:51;;;;;;;8.52;5.20;;;;;;;;;;5049490;28;20631;-65
2021/01/10 13:56:18;;;;;;;9.77;6.75;;;;;;;;;;5050943;28;20227;-67
2021/01/10 13:58:45;;;;;;;8.93;5.82;;;;;;;;;;5050690;28;20291;-63
2021/01/10 14:01:11;;;;;;;7.32;4.63;;;;;;;;;;5051374;28;20188;-63
2021/01/10 14:03:38;;;;;;;7.00;4.47;;;;;;;;;;5052434;28;20239;-69
2021/01/10 14:06:05;;;;;;;39.60;28.23;;;;;;;;;;5051177;28;20193;-67
2021/01/10 14:08:32;;;;;;;67.45;48.17;;;;;;;;;;5051206;28;20310;-71
2021/01/10 14:10:58;;;;;;;11.07;6.68;;;;;;;;;;5038080;28;20213;-66
2021/01/10 14:13:26;;;;;;;11.18;7.30;;;;;;;;;;5031046;28;20220;-68
2021/01/10 14:15:53;;;;;;;10.80;6.88;;;;;;;;;;5029192;28;20208;-66
2021/01/10 14:18:20;;;;;;;11.77;8.13;;;;;;;;;;5030366;28;20201;-67
2021/01/10 14:20:46;;;;;;;11.80;8.13;;;;;;;;;;5029886;28;20207;-62
2021/01/10 14:23:12;;;;;;;11.57;7.45;;;;;;;;;;5030275;28;20952;-69
2021/01/10 14:25:42;;;;;;;8.18;5.22;;;;;;;;;;5032962;28;20177;-64
2021/01/10 14:28:10;;;;;;;7.30;4.53;;;;;;;;;;5048297;28;20212;-67
2021/01/10 14:30:36;;;;;;;5.10;3.28;;;;;;;;;;5037205;28;20189;-67
2021/01/10 14:33:03;;;;;;;6.15;3.00;;;;;;;;;;5048559;28;20204;-67
2021/01/10 14:35:29;;;;;;;5.82;3.22;;;;;;;;;;5047753;28;20236;-64
2021/01/10 14:37:55;;;;;;;5.68;3.67;;;;;;;;;;5036533;28;20204;-69
2021/01/10 14:40:21;;;;;;;8.00;3.97;;;;;;;;;;5047151;28;20552;-67
2021/01/10 14:42:48;;;;;;;7.93;4.57;;;;;;;;;;5050457;28;20193;-66
2021/01/10 14:45:14;;;;;;;4.85;3.25;;;;;;;;;;5049372;28;20168;-63